Time,TemperatureF,DewpointF,PressureIn,WindDirection,WindDirectionDegrees,WindSpeedMPH,WindSpeedGustMPH,Humidity,HourlyPrecipIn,Conditions,Clouds,dailyrainin,SoftwareType,DateUTC
2013-05-29 00:01:00,52.2,46.5,29.33,North,0,0.0,0.0,81,0.00,,,0.00,WUHU216HW,2013-05-29 07:01:00,
2013-05-29 00:06:00,52.2,46.5,29.33,North,0,0.0,0.0,81,0.00,,,0.00,WUHU216HW,2013-05-29 07:06:00,
2013-05-29 00:11:00,52.2,46.5,29.32,North,0,0.0,0.0,81,0.00,,,0.00,WUHU216HW,2013-05-29 07:11:00,
2013-05-29 00:16:00,52.0,46.4,29.32,North,0,0.0,0.0,81,0.00,,,0.00,WUHU216HW,2013-05-29 07:16:00,
2013-05-29 00:21:00,52.2,46.5,29.32,North,0,0.0,0.0,81,0.00,,,0.00,WUHU216HW,2013-05-29 07:21:00,
2013-05-29 00:26:00,52.0,46.7,29.31,North,0,0.0,0.0,82,0.00,,,0.00,WUHU216HW,2013-05-29 07:26:00,
2013-05-29 00:31:00,52.0,46.7,29.31,North,0,0.0,0.0,82,0.00,,,0.00,WUHU216HW,2013-05-29 07:31:00,
2013-05-29 00:36:00,52.2,46.9,29.31,North,0,0.0,0.0,82,0.00,,,0.00,WUHU216HW,2013-05-29 07:36:00,
2013-05-29 00:41:00,52.2,46.9,29.30,North,0,0.0,0.0,82,0.00,,,0.00,WUHU216HW,2013-05-29 07:41:00,
2013-05-29 00:46:00,52.2,46.9,29.30,North,0,0.0,0.0,82,0.00,,,0.00,WUHU216HW,2013-05-29 07:46:00,
2013-05-29 00:51:00,52.2,46.9,29.30,North,0,0.0,0.0,82,0.00,,,0.00,WUHU216HW,2013-05-29 07:51:00,
2013-05-29 00:56:00,52.2,46.9,29.30,North,0,0.0,0.0,82,0.00,,,0.00,WUHU216HW,2013-05-29 07:56:00,
2013-05-29 01:01:00,51.8,46.5,29.30,North,0,0.0,0.0,82,0.00,,,0.00,WUHU216HW,2013-05-29 08:01:00,
2013-05-29 01:06:00,51.8,46.5,29.30,North,0,0.0,0.0,82,0.00,,,0.00,WUHU216HW,2013-05-29 08:06:00,
2013-05-29 01:11:00,51.7,46.6,29.30,North,0,0.0,0.0,83,0.00,,,0.00,WUHU216HW,2013-05-29 08:11:00,
2013-05-29 01:16:00,51.7,46.6,29.30,North,0,0.0,0.0,83,0.00,,,0.00,WUHU216HW,2013-05-29 08:16:00,
2013-05-29 01:21:00,51.7,46.6,29.30,North,0,0.0,0.0,83,0.00,,,0.00,WUHU216HW,2013-05-29 08:21:00,
2013-05-29 01:26:00,51.7,46.6,29.30,North,0,0.0,0.0,83,0.00,,,0.00,WUHU216HW,2013-05-29 08:26:00,
2013-05-29 01:31:00,51.8,46.8,29.30,North,0,0.0,0.0,83,0.00,,,0.00,WUHU216HW,2013-05-29 08:31:00,
2013-05-29 01:36:00,51.8,47.2,29.29,North,0,0.0,0.0,84,0.00,,,0.00,WUHU216HW,2013-05-29 08:36:00,
2013-05-29 01:41:00,51.5,46.8,29.29,North,0,0.0,0.0,84,0.00,,,0.00,WUHU216HW,2013-05-29 08:41:00,
2013-05-29 01:46:00,51.5,46.8,29.29,North,0,0.0,0.0,84,0.00,,,0.00,WUHU216HW,2013-05-29 08:46:00,
2013-05-29 01:51:00,51.3,46.6,29.29,North,0,0.0,0.0,84,0.00,,,0.00,WUHU216HW,2013-05-29 08:51:00,
2013-05-29 01:56:00,51.5,46.8,29.29,North,0,0.0,0.0,84,0.00,,,0.00,WUHU216HW,2013-05-29 08:56:00,
2013-05-29 02:01:00,51.5,46.8,29.28,North,0,0.0,0.0,84,0.00,,,0.00,WUHU216HW,2013-05-29 09:01:00,
2013-05-29 02:06:00,51.5,46.8,29.28,North,0,0.0,0.0,84,0.00,,,0.00,WUHU216HW,2013-05-29 09:06:00,
2013-05-29 02:11:00,51.5,46.8,29.28,North,0,0.0,0.0,84,0.00,,,0.00,WUHU216HW,2013-05-29 09:11:00,
2013-05-29 02:16:00,51.5,46.8,29.28,North,0,0.0,0.0,84,0.00,,,0.00,WUHU216HW,2013-05-29 09:16:00,
2013-05-29 02:21:00,51.5,47.1,29.28,North,0,0.0,0.0,85,0.00,,,0.00,WUHU216HW,2013-05-29 09:21:00,
2013-05-29 02:26:00,51.3,46.9,29.27,North,0,0.0,0.0,85,0.00,,,0.00,WUHU216HW,2013-05-29 09:26:00,
2013-05-29 02:31:00,50.9,46.8,29.27,North,0,0.0,0.0,86,0.00,,,0.00,WUHU216HW,2013-05-29 09:31:00,
2013-05-29 02:36:00,50.8,46.4,29.27,North,0,0.0,0.0,85,0.00,,,0.00,WUHU216HW,2013-05-29 09:36:00,
2013-05-29 02:41:00,50.9,46.8,29.27,North,0,0.0,0.0,86,0.00,,,0.00,WUHU216HW,2013-05-29 09:41:00,
2013-05-29 02:46:00,50.8,46.6,29.27,North,0,0.0,0.0,86,0.00,,,0.00,WUHU216HW,2013-05-29 09:46:00,
2013-05-29 02:51:00,50.8,46.6,29.27,North,0,0.0,0.0,86,0.00,,,0.00,WUHU216HW,2013-05-29 09:51:00,
2013-05-29 02:56:00,50.9,46.8,29.27,North,0,0.0,0.0,86,0.00,,,0.00,WUHU216HW,2013-05-29 09:56:00,
2013-05-29 03:01:00,50.9,46.8,29.27,North,0,0.0,0.0,86,0.00,,,0.00,WUHU216HW,2013-05-29 10:01:00,
2013-05-29 03:06:00,51.1,46.7,29.27,North,0,0.0,0.0,85,0.00,,,0.00,WUHU216HW,2013-05-29 10:06:00,
2013-05-29 03:11:00,51.1,46.7,29.27,North,0,0.0,0.0,85,0.00,,,0.00,WUHU216HW,2013-05-29 10:11:00,
2013-05-29 03:16:00,51.1,46.7,29.27,North,0,0.0,0.0,85,0.00,,,0.00,WUHU216HW,2013-05-29 10:16:00,
2013-05-29 03:21:00,51.3,46.9,29.27,North,0,0.0,0.0,85,0.00,,,0.00,WUHU216HW,2013-05-29 10:21:00,
2013-05-29 03:26:00,51.3,46.9,29.27,North,0,0.0,0.0,85,0.00,,,0.00,WUHU216HW,2013-05-29 10:26:00,
2013-05-29 03:31:00,51.1,47.0,29.27,North,0,0.0,0.0,86,0.00,,,0.00,WUHU216HW,2013-05-29 10:31:00,
2013-05-29 03:36:00,50.9,46.8,29.27,North,0,0.0,0.0,86,0.00,,,0.00,WUHU216HW,2013-05-29 10:36:00,
2013-05-29 03:41:00,50.8,46.6,29.27,North,0,0.0,0.0,86,0.00,,,0.00,WUHU216HW,2013-05-29 10:41:00,
2013-05-29 03:46:00,50.8,46.6,29.27,North,0,0.0,0.0,86,0.00,,,0.00,WUHU216HW,2013-05-29 10:46:00,
2013-05-29 03:51:00,50.9,47.2,29.27,North,0,0.0,0.0,87,0.00,,,0.00,WUHU216HW,2013-05-29 10:51:00,
2013-05-29 03:56:00,50.8,47.0,29.27,North,0,0.0,0.0,87,0.00,,,0.00,WUHU216HW,2013-05-29 10:56:00,
2013-05-29 04:01:00,50.8,47.3,29.27,North,0,0.0,0.0,88,0.00,,,0.00,WUHU216HW,2013-05-29 11:01:00,
2013-05-29 04:06:00,50.6,46.8,29.27,North,0,0.0,0.0,87,0.00,,,0.00,WUHU216HW,2013-05-29 11:06:00,
2013-05-29 04:11:00,50.8,47.0,29.27,North,0,0.0,0.0,87,0.00,,,0.00,WUHU216HW,2013-05-29 11:11:00,
2013-05-29 04:16:00,50.6,47.1,29.27,North,0,0.0,0.0,88,0.00,,,0.00,WUHU216HW,2013-05-29 11:16:00,
2013-05-29 04:21:00,50.6,47.1,29.27,North,0,0.0,0.0,88,0.00,,,0.00,WUHU216HW,2013-05-29 11:21:00,
2013-05-29 04:26:00,50.6,46.8,29.27,North,0,0.0,0.0,87,0.00,,,0.00,WUHU216HW,2013-05-29 11:26:00,
2013-05-29 04:31:00,50.4,46.9,29.27,North,0,0.0,0.0,88,0.00,,,0.00,WUHU216HW,2013-05-29 11:31:00,
2013-05-29 04:37:00,50.4,46.9,29.26,North,0,0.0,0.0,88,0.00,,,0.00,WUHU216HW,2013-05-29 11:37:00,
2013-05-29 04:42:00,50.4,46.9,29.26,North,0,0.0,0.0,88,0.00,,,0.00,WUHU216HW,2013-05-29 11:42:00,
2013-05-29 04:46:00,50.6,47.1,29.26,North,0,0.0,0.0,88,0.00,,,0.00,WUHU216HW,2013-05-29 11:46:00,
2013-05-29 04:52:00,50.6,47.1,29.26,North,0,0.0,0.0,88,0.00,,,0.00,WUHU216HW,2013-05-29 11:52:00,
2013-05-29 04:57:00,50.6,47.1,29.26,North,0,0.0,0.0,88,0.00,,,0.00,WUHU216HW,2013-05-29 11:57:00,
2013-05-29 05:02:00,50.4,46.9,29.26,North,0,0.0,0.0,88,0.00,,,0.00,WUHU216HW,2013-05-29 12:02:00,
2013-05-29 05:07:00,50.4,47.3,29.26,North,0,0.0,0.0,89,0.00,,,0.00,WUHU216HW,2013-05-29 12:07:00,
2013-05-29 05:12:00,50.2,46.7,29.26,North,0,0.0,0.0,88,0.00,,,0.00,WUHU216HW,2013-05-29 12:12:00,
2013-05-29 05:17:00,50.2,46.7,29.26,North,0,0.0,0.0,88,0.00,,,0.00,WUHU216HW,2013-05-29 12:17:00,
2013-05-29 05:22:00,50.2,46.7,29.26,North,0,0.0,0.0,88,0.00,,,0.00,WUHU216HW,2013-05-29 12:22:00,
2013-05-29 05:27:00,50.2,46.7,29.26,North,0,0.0,0.0,88,0.00,,,0.00,WUHU216HW,2013-05-29 12:27:00,
2013-05-29 05:32:00,50.2,46.7,29.26,North,0,0.0,0.0,88,0.00,,,0.00,WUHU216HW,2013-05-29 12:32:00,
2013-05-29 05:37:00,50.2,46.7,29.27,North,0,0.0,0.0,88,0.00,,,0.00,WUHU216HW,2013-05-29 12:37:00,
2013-05-29 05:42:00,50.2,46.7,29.27,North,0,0.0,0.0,88,0.00,,,0.00,WUHU216HW,2013-05-29 12:42:00,
2013-05-29 05:47:00,50.2,46.7,29.26,North,0,0.0,0.0,88,0.00,,,0.00,WUHU216HW,2013-05-29 12:47:00,
2013-05-29 05:52:00,50.0,46.5,29.26,North,0,0.0,0.0,88,0.00,,,0.00,WUHU216HW,2013-05-29 12:52:00,
2013-05-29 05:57:00,50.0,46.5,29.26,North,0,0.0,0.0,88,0.00,,,0.00,WUHU216HW,2013-05-29 12:57:00,
2013-05-29 06:02:00,50.0,46.9,29.26,North,0,0.0,0.0,89,0.00,,,0.00,WUHU216HW,2013-05-29 13:02:00,
2013-05-29 06:07:00,50.0,46.5,29.26,North,0,0.0,0.0,88,0.00,,,0.00,WUHU216HW,2013-05-29 13:07:00,
2013-05-29 06:12:00,50.0,46.9,29.26,North,0,0.0,0.0,89,0.00,,,0.00,WUHU216HW,2013-05-29 13:12:00,
2013-05-29 06:17:00,50.0,46.9,29.26,North,0,0.0,0.0,89,0.00,,,0.00,WUHU216HW,2013-05-29 13:17:00,
2013-05-29 06:22:00,50.0,46.9,29.26,North,0,0.0,0.0,89,0.00,,,0.00,WUHU216HW,2013-05-29 13:22:00,
2013-05-29 06:27:00,50.2,47.1,29.26,North,0,0.0,0.0,89,0.00,,,0.00,WUHU216HW,2013-05-29 13:27:00,
2013-05-29 06:32:00,50.2,47.1,29.26,North,0,0.0,0.0,89,0.00,,,0.00,WUHU216HW,2013-05-29 13:32:00,
2013-05-29 06:37:00,50.2,47.1,29.26,North,0,0.0,0.0,89,0.00,,,0.00,WUHU216HW,2013-05-29 13:37:00,
2013-05-29 06:42:00,50.4,47.3,29.26,North,0,0.0,0.0,89,0.00,,,0.00,WUHU216HW,2013-05-29 13:42:00,
2013-05-29 06:47:00,50.4,47.3,29.26,North,0,0.0,0.0,89,0.00,,,0.00,WUHU216HW,2013-05-29 13:47:00,
2013-05-29 06:52:00,50.4,47.3,29.26,North,0,0.0,0.0,89,0.00,,,0.00,WUHU216HW,2013-05-29 13:52:00,
2013-05-29 06:57:00,50.6,47.4,29.26,North,0,0.0,0.0,89,0.00,,,0.00,WUHU216HW,2013-05-29 13:57:00,
2013-05-29 07:02:00,50.6,47.4,29.26,North,0,0.0,0.0,89,0.00,,,0.00,WUHU216HW,2013-05-29 14:02:00,
2013-05-29 07:07:00,50.6,47.4,29.26,North,0,0.0,0.0,89,0.00,,,0.00,WUHU216HW,2013-05-29 14:07:00,
2013-05-29 07:12:00,50.6,47.4,29.26,North,0,0.0,0.0,89,0.00,,,0.00,WUHU216HW,2013-05-29 14:12:00,
2013-05-29 07:17:00,50.8,47.6,29.26,North,0,0.0,0.0,89,0.00,,,0.00,WUHU216HW,2013-05-29 14:17:00,
2013-05-29 07:22:00,50.8,47.6,29.26,North,0,0.0,0.0,89,0.00,,,0.00,WUHU216HW,2013-05-29 14:22:00,
2013-05-29 07:27:00,50.9,47.8,29.26,North,0,0.0,0.0,89,0.00,,,0.00,WUHU216HW,2013-05-29 14:27:00,
2013-05-29 07:32:00,51.1,48.0,29.26,North,0,0.0,0.0,89,0.00,,,0.00,WUHU216HW,2013-05-29 14:32:00,
2013-05-29 07:37:00,51.1,48.0,29.26,North,0,0.0,0.0,89,0.00,,,0.00,WUHU216HW,2013-05-29 14:37:00,
2013-05-29 07:42:00,51.1,48.0,29.26,North,0,0.0,0.0,89,0.00,,,0.00,WUHU216HW,2013-05-29 14:42:00,
2013-05-29 07:47:00,51.5,48.6,29.26,North,0,0.0,0.0,90,0.00,,,0.00,WUHU216HW,2013-05-29 14:47:00,
2013-05-29 07:52:00,51.3,48.2,29.26,North,0,0.0,0.0,89,0.00,,,0.00,WUHU216HW,2013-05-29 14:52:00,
2013-05-29 07:57:00,51.5,48.3,29.26,North,0,0.0,0.0,89,0.00,,,0.00,WUHU216HW,2013-05-29 14:57:00,
2013-05-29 08:02:00,51.7,48.5,29.26,North,0,0.0,0.0,89,0.00,,,0.00,WUHU216HW,2013-05-29 15:02:00,
2013-05-29 08:07:00,51.7,48.5,29.26,North,0,0.0,0.0,89,0.00,,,0.00,WUHU216HW,2013-05-29 15:07:00,
2013-05-29 08:12:00,51.7,48.5,29.26,North,0,0.0,0.0,89,0.00,,,0.00,WUHU216HW,2013-05-29 15:12:00,
2013-05-29 08:17:00,51.8,49.0,29.26,North,0,0.0,0.0,90,0.00,,,0.00,WUHU216HW,2013-05-29 15:17:00,
2013-05-29 08:22:00,52.0,48.9,29.27,North,0,0.0,0.0,89,0.00,,,0.00,WUHU216HW,2013-05-29 15:22:00,
2013-05-29 08:27:00,52.2,49.1,29.27,North,0,0.0,0.0,89,0.00,,,0.00,WUHU216HW,2013-05-29 15:27:00,
2013-05-29 08:32:00,52.6,49.4,29.27,North,0,0.0,0.0,89,0.00,,,0.00,WUHU216HW,2013-05-29 15:32:00,
2013-05-29 08:37:00,52.6,49.4,29.27,North,0,0.0,0.0,89,0.00,,,0.00,WUHU216HW,2013-05-29 15:37:00,
2013-05-29 08:42:00,52.7,49.6,29.27,North,0,0.0,0.0,89,0.00,,,0.00,WUHU216HW,2013-05-29 15:42:00,
2013-05-29 08:47:00,52.9,49.8,29.27,North,0,0.0,0.0,89,0.00,,,0.00,WUHU216HW,2013-05-29 15:47:00,
2013-05-29 08:52:00,52.7,49.6,29.27,North,0,0.0,0.0,89,0.00,,,0.00,WUHU216HW,2013-05-29 15:52:00,
2013-05-29 08:57:00,52.9,49.8,29.27,North,0,0.0,0.0,89,0.00,,,0.00,WUHU216HW,2013-05-29 15:57:00,
2013-05-29 09:02:00,52.9,49.8,29.28,North,0,0.0,0.0,89,0.00,,,0.00,WUHU216HW,2013-05-29 16:02:00,
2013-05-29 09:07:00,53.1,49.6,29.28,North,0,0.0,0.0,88,0.00,,,0.00,WUHU216HW,2013-05-29 16:07:00,
2013-05-29 09:12:00,53.1,49.3,29.28,North,0,0.0,0.0,87,0.00,,,0.00,WUHU216HW,2013-05-29 16:12:00,
2013-05-29 09:17:00,53.5,50.0,29.28,North,0,0.0,0.0,88,0.00,,,0.00,WUHU216HW,2013-05-29 16:17:00,
2013-05-29 09:22:00,53.3,49.8,29.28,North,0,0.0,0.0,88,0.00,,,0.00,WUHU216HW,2013-05-29 16:22:00,
2013-05-29 09:27:00,53.5,50.0,29.28,North,0,0.0,0.0,88,0.00,,,0.00,WUHU216HW,2013-05-29 16:27:00,
2013-05-29 09:32:00,53.6,50.1,29.28,North,0,0.0,0.0,88,0.00,,,0.00,WUHU216HW,2013-05-29 16:32:00,
2013-05-29 09:37:00,54.0,50.5,29.28,North,0,0.0,0.0,88,0.00,,,0.00,WUHU216HW,2013-05-29 16:37:00,
2013-05-29 09:42:00,54.2,50.4,29.29,North,0,0.0,0.0,87,0.00,,,0.00,WUHU216HW,2013-05-29 16:42:00,
2013-05-29 09:47:00,54.0,50.2,29.29,North,0,0.0,0.0,87,0.00,,,0.00,WUHU216HW,2013-05-29 16:47:00,
2013-05-29 09:52:00,54.0,50.2,29.29,North,0,0.0,0.0,87,0.00,,,0.00,WUHU216HW,2013-05-29 16:52:00,
2013-05-29 09:57:00,53.8,50.1,29.29,North,0,0.0,0.0,87,0.00,,,0.00,WUHU216HW,2013-05-29 16:57:00,
2013-05-29 10:02:00,53.8,49.7,29.29,North,0,0.0,0.0,86,0.00,,,0.00,WUHU216HW,2013-05-29 17:02:00,
2013-05-29 10:07:00,53.8,50.3,29.29,North,0,0.0,0.0,88,0.00,,,0.00,WUHU216HW,2013-05-29 17:07:00,
2013-05-29 10:12:00,53.8,50.3,29.29,North,0,0.0,0.0,88,0.00,,,0.00,WUHU216HW,2013-05-29 17:12:00,
2013-05-29 10:17:00,54.0,50.5,29.30,North,0,0.0,0.0,88,0.00,,,0.00,WUHU216HW,2013-05-29 17:17:00,
2013-05-29 10:22:00,54.0,50.5,29.30,North,0,0.0,0.0,88,0.00,,,0.00,WUHU216HW,2013-05-29 17:22:00,
2013-05-29 10:27:00,53.8,50.3,29.30,North,0,0.0,0.0,88,0.00,,,0.00,WUHU216HW,2013-05-29 17:27:00,
2013-05-29 10:32:00,53.8,50.7,29.30,North,0,0.0,0.0,89,0.00,,,0.00,WUHU216HW,2013-05-29 17:32:00,
2013-05-29 10:37:00,54.0,50.5,29.30,North,0,0.0,0.0,88,0.00,,,0.00,WUHU216HW,2013-05-29 17:37:00,
2013-05-29 10:42:00,54.4,50.9,29.30,North,0,0.0,0.0,88,0.00,,,0.00,WUHU216HW,2013-05-29 17:42:00,
2013-05-29 10:47:00,54.5,51.0,29.30,North,0,0.0,0.0,88,0.00,,,0.00,WUHU216HW,2013-05-29 17:47:00,
2013-05-29 10:52:00,54.5,51.0,29.31,North,0,0.0,0.0,88,0.00,,,0.00,WUHU216HW,2013-05-29 17:52:00,
2013-05-29 10:57:00,54.9,51.4,29.31,North,0,0.0,0.0,88,0.00,,,0.00,WUHU216HW,2013-05-29 17:57:00,
2013-05-29 11:02:00,54.9,51.4,29.31,North,0,0.0,0.0,88,0.00,,,0.00,WUHU216HW,2013-05-29 18:02:00,
2013-05-29 11:07:00,55.1,51.6,29.31,North,0,0.0,0.0,88,0.00,,,0.00,WUHU216HW,2013-05-29 18:07:00,
2013-05-29 11:12:00,55.3,51.8,29.31,North,0,0.0,0.0,88,0.00,,,0.00,WUHU216HW,2013-05-29 18:12:00,
2013-05-29 11:17:00,55.4,51.6,29.31,North,0,0.0,0.0,87,0.00,,,0.00,WUHU216HW,2013-05-29 18:17:00,
2013-05-29 11:22:00,55.6,51.8,29.32,North,0,0.0,0.0,87,0.00,,,0.00,WUHU216HW,2013-05-29 18:22:00,
2013-05-29 11:27:00,55.6,51.8,29.32,North,0,0.0,0.0,87,0.00,,,0.00,WUHU216HW,2013-05-29 18:27:00,
2013-05-29 11:32:00,55.6,51.8,29.32,North,0,0.0,0.0,87,0.00,,,0.00,WUHU216HW,2013-05-29 18:32:00,
2013-05-29 11:37:00,55.8,51.9,29.32,North,0,0.0,0.0,87,0.00,,,0.00,WUHU216HW,2013-05-29 18:37:00,
2013-05-29 11:42:00,56.2,52.3,29.32,North,0,0.0,0.0,87,0.00,,,0.00,WUHU216HW,2013-05-29 18:42:00,
2013-05-29 11:47:00,56.2,52.0,29.33,North,0,0.0,0.0,86,0.00,,,0.00,WUHU216HW,2013-05-29 18:47:00,
2013-05-29 11:52:00,55.8,51.7,29.32,North,0,0.0,0.0,86,0.00,,,0.00,WUHU216HW,2013-05-29 18:52:00,
2013-05-29 11:57:00,55.6,51.5,29.33,North,0,0.0,0.0,86,0.00,,,0.00,WUHU216HW,2013-05-29 18:57:00,
2013-05-29 12:02:00,55.4,51.3,29.33,North,0,0.0,0.0,86,0.00,,,0.00,WUHU216HW,2013-05-29 19:02:00,
2013-05-29 12:07:00,55.3,51.1,29.33,North,0,0.0,0.0,86,0.00,,,0.00,WUHU216HW,2013-05-29 19:07:00,
2013-05-29 12:12:00,54.9,51.0,29.33,North,0,0.0,0.0,87,0.00,,,0.00,WUHU216HW,2013-05-29 19:12:00,
2013-05-29 12:17:00,54.7,51.2,29.33,North,0,0.0,0.0,88,0.00,,,0.00,WUHU216HW,2013-05-29 19:17:00,
2013-05-29 12:22:00,54.9,51.4,29.33,North,0,0.0,0.0,88,0.00,,,0.00,WUHU216HW,2013-05-29 19:22:00,
2013-05-29 12:27:00,55.3,52.4,29.33,North,0,0.0,0.0,90,0.00,,,0.00,WUHU216HW,2013-05-29 19:27:00,
2013-05-29 12:32:00,55.8,52.6,29.33,North,0,0.0,0.0,89,0.00,,,0.00,WUHU216HW,2013-05-29 19:32:00,
2013-05-29 12:37:00,56.2,52.9,29.34,North,0,0.0,0.0,89,0.00,,,0.00,WUHU216HW,2013-05-29 19:37:00,
2013-05-29 12:41:00,56.3,52.2,29.34,North,0,0.0,0.0,86,0.00,,,0.00,WUHU216HW,2013-05-29 19:41:00,
2013-05-29 12:42:00,56.3,52.2,29.34,North,0,0.0,0.0,86,0.00,,,0.00,WUHU216HW,2013-05-29 19:42:00,
2013-05-29 12:46:00,56.3,52.2,29.34,North,0,0.0,0.0,86,0.00,,,0.00,WUHU216HW,2013-05-29 19:46:00,
2013-05-29 12:57:00,56.7,52.6,29.35,North,0,0.0,0.0,86,0.00,,,0.00,WUHU216HW,2013-05-29 19:57:00,
2013-05-29 13:02:00,56.9,52.0,29.35,North,0,0.0,0.0,84,0.00,,,0.00,WUHU216HW,2013-05-29 20:02:00,
2013-05-29 13:07:00,57.2,52.7,29.35,North,0,0.0,0.0,85,0.00,,,0.00,WUHU216HW,2013-05-29 20:07:00,
2013-05-29 13:12:00,57.4,53.3,29.35,North,0,0.0,0.0,86,0.00,,,0.00,WUHU216HW,2013-05-29 20:12:00,
2013-05-29 13:17:00,57.6,53.5,29.35,North,0,0.0,0.0,86,0.00,,,0.00,WUHU216HW,2013-05-29 20:17:00,
2013-05-29 22:21:00,61.4,45.2,29.91,North,0,0.0,0.0,55,0.11,,,0.00,WUHU216HW,2013-05-30 05:21:00,
2013-05-29 22:22:00,61.2,44.9,29.91,North,0,0.0,0.0,55,0.11,,,0.00,WUHU216HW,2013-05-30 05:22:00,
2013-05-29 22:27:00,59.6,45.3,29.91,North,0,0.0,0.0,59,0.11,,,0.00,WUHU216HW,2013-05-30 05:27:00,
2013-05-29 22:32:00,58.5,44.7,29.91,North,0,0.0,0.0,60,0.11,,,0.00,WUHU216HW,2013-05-30 05:32:00,
2013-05-29 22:37:00,57.6,44.6,29.91,North,0,0.0,0.0,62,0.11,,,0.00,WUHU216HW,2013-05-30 05:37:00,
2013-05-29 22:42:00,56.5,44.5,29.91,North,0,0.0,0.0,64,0.11,,,0.00,WUHU216HW,2013-05-30 05:42:00,
2013-05-29 22:47:00,55.8,44.6,29.91,North,0,0.0,0.0,66,0.11,,,0.00,WUHU216HW,2013-05-30 05:47:00,
2013-05-29 22:52:00,55.3,44.5,29.91,North,0,0.0,0.0,67,0.11,,,0.00,WUHU216HW,2013-05-30 05:52:00,
2013-05-29 22:57:00,54.9,44.9,29.91,North,0,0.0,0.0,69,0.00,,,0.00,WUHU216HW,2013-05-30 05:57:00,
2013-05-29 23:02:00,54.4,44.5,29.91,North,0,0.0,0.0,69,0.00,,,0.00,WUHU216HW,2013-05-30 06:02:00,
2013-05-29 23:07:00,54.0,44.5,29.91,North,0,0.0,0.0,70,0.00,,,0.00,WUHU216HW,2013-05-30 06:07:00,
2013-05-29 23:12:00,53.6,44.5,29.91,North,0,0.0,0.0,71,0.00,,,0.00,WUHU216HW,2013-05-30 06:12:00,
2013-05-29 23:17:00,53.5,44.6,29.91,North,0,0.0,0.0,72,0.00,,,0.00,WUHU216HW,2013-05-30 06:17:00,
2013-05-29 23:22:00,53.3,44.5,29.91,North,0,0.0,0.0,72,0.00,,,0.00,WUHU216HW,2013-05-30 06:22:00,
2013-05-29 23:27:00,53.1,44.3,29.91,North,0,0.0,0.0,72,0.00,,,0.00,WUHU216HW,2013-05-30 06:27:00,
2013-05-29 23:32:00,52.9,44.2,29.91,North,0,0.0,0.0,72,0.00,,,0.00,WUHU216HW,2013-05-30 06:32:00,
2013-05-29 23:37:00,52.7,44.4,29.91,North,0,0.0,0.0,73,0.00,,,0.00,WUHU216HW,2013-05-30 06:37:00,
2013-05-29 23:42:00,52.4,44.7,29.92,North,0,0.0,0.0,75,0.00,,,0.00,WUHU216HW,2013-05-30 06:42:00,
2013-05-29 23:47:00,52.0,44.4,29.92,North,0,0.0,0.0,75,0.00,,,0.00,WUHU216HW,2013-05-30 06:47:00,
2013-05-29 23:52:00,51.8,44.2,29.92,North,0,0.0,0.0,75,0.00,,,0.00,WUHU216HW,2013-05-30 06:52:00,
2013-05-29 23:57:00,51.7,44.0,29.92,North,0,0.0,0.0,75,0.00,,,0.00,WUHU216HW,2013-05-30 06:57:00,